createdAt,value
2023-05-15T00:01:25.794Z,5.60
2023-05-15T00:03:55.108Z,5.22
2023-05-15T00:06:23.596Z,5.10
2023-05-15T00:08:53.098Z,5.13
2023-05-15T00:11:23.513Z,5.57
2023-05-15T00:13:51.667Z,5.18
2023-05-15T00:16:20.008Z,5.28
2023-05-15T00:18:48.214Z,5.70
2023-05-15T00:21:17.083Z,5.57
2023-05-15T00:23:47.463Z,5.35
2023-05-15T00:26:16.980Z,5.55
2023-05-15T00:28:45.088Z,6.20
2023-05-15T00:31:15.090Z,6.18
2023-05-15T00:33:43.437Z,5.00
2023-05-15T00:36:11.667Z,6.00
2023-05-15T00:38:39.794Z,5.38
2023-05-15T00:41:08.225Z,5.65
2023-05-15T00:43:37.992Z,5.97
2023-05-15T00:46:06.211Z,5.63
2023-05-15T00:48:34.818Z,6.65
2023-05-15T00:51:03.424Z,5.22
2023-05-15T00:53:31.705Z,6.05
2023-05-15T00:56:00.440Z,6.32
2023-05-15T00:58:29.447Z,5.32
2023-05-15T01:00:58.952Z,5.63
2023-05-15T01:03:27.095Z,6.30
2023-05-15T01:05:55.239Z,6.32
2023-05-15T01:08:27.958Z,5.90
2023-05-15T01:10:57.145Z,5.90
2023-05-15T01:13:25.937Z,5.68
2023-05-15T01:15:55.735Z,5.82
2023-05-15T01:18:26.115Z,6.70
2023-05-15T01:21:08.450Z,6.65
2023-05-15T01:23:47.348Z,6.05
2023-05-15T01:26:36.672Z,6.30
2023-05-15T01:29:10.480Z,6.43
2023-05-15T01:31:39.820Z,6.30
2023-05-15T01:34:09.927Z,6.35
2023-05-15T01:36:40.724Z,6.82
2023-05-15T01:39:09.342Z,6.72
2023-05-15T01:41:43.388Z,7.22
2023-05-15T01:44:17.226Z,6.75
2023-05-15T01:46:47.792Z,7.28
2023-05-15T01:49:19.012Z,6.10
2023-05-15T01:51:50.888Z,6.88
2023-05-15T01:54:19.534Z,7.00
2023-05-15T01:56:47.687Z,7.13
2023-05-15T01:59:18.135Z,6.90
2023-05-15T02:01:46.508Z,6.88
2023-05-15T02:04:15.754Z,6.70
2023-05-15T02:06:43.963Z,6.90
2023-05-15T02:09:12.812Z,7.05
2023-05-15T02:11:41.486Z,6.35
2023-05-15T02:14:10.464Z,6.82
2023-05-15T02:16:40.094Z,7.05
2023-05-15T02:19:08.430Z,7.05
2023-05-15T02:21:36.714Z,6.72
2023-05-15T02:24:05.268Z,7.63
2023-05-15T02:26:37.986Z,7.50
2023-05-15T02:29:12.353Z,6.90
2023-05-15T02:31:48.079Z,7.50
2023-05-15T02:34:19.584Z,7.78
2023-05-15T02:36:50.259Z,7.43
2023-05-15T02:39:18.863Z,7.63
2023-05-15T02:41:48.364Z,7.60
2023-05-15T02:44:16.948Z,7.05
2023-05-15T02:46:46.885Z,7.13
2023-05-15T02:49:15.282Z,7.15
2023-05-15T02:51:43.755Z,8.00
2023-05-15T02:54:11.961Z,7.70
2023-05-15T02:56:40.310Z,8.48
2023-05-15T02:59:08.427Z,7.88
2023-05-15T03:01:36.678Z,7.20
2023-05-15T03:04:06.468Z,8.55
2023-05-15T03:06:34.602Z,8.65
2023-05-15T03:09:02.780Z,7.93
2023-05-15T03:11:30.877Z,7.78
2023-05-15T03:14:00.213Z,8.10
2023-05-15T03:16:28.439Z,7.60
2023-05-15T03:18:56.654Z,8.07
2023-05-15T03:21:26.390Z,7.95
2023-05-15T03:23:54.545Z,7.80
2023-05-15T03:26:23.153Z,7.85
2023-05-15T03:28:51.306Z,6.85
2023-05-15T03:31:19.537Z,7.68
2023-05-15T03:33:49.996Z,8.27
2023-05-15T03:36:18.150Z,8.00
2023-05-15T03:38:47.609Z,7.78
2023-05-15T03:41:15.726Z,7.97
2023-05-15T03:43:43.870Z,8.38
2023-05-15T03:46:12.795Z,8.05
2023-05-15T03:48:41.284Z,8.25
2023-05-15T03:51:10.550Z,7.78
2023-05-15T03:53:38.709Z,7.40
2023-05-15T03:56:08.416Z,6.93
2023-05-15T03:58:36.561Z,7.38
2023-05-15T04:01:04.764Z,7.63
2023-05-15T04:03:32.910Z,7.20
2023-05-15T04:06:01.086Z,7.35
2023-05-15T04:08:29.258Z,7.38
2023-05-15T04:10:57.452Z,8.35
2023-05-15T04:13:26.940Z,7.70
2023-05-15T04:15:55.210Z,8.23
2023-05-15T04:18:23.578Z,7.45
2023-05-15T04:20:52.625Z,7.93
2023-05-15T04:23:20.965Z,7.32
2023-05-15T04:25:49.081Z,7.30
2023-05-15T04:28:17.546Z,7.72
2023-05-15T04:30:47.037Z,7.40
2023-05-15T04:33:15.253Z,7.75
2023-05-15T04:35:43.803Z,8.60
2023-05-15T04:38:11.942Z,7.25
2023-05-15T04:40:40.046Z,7.28
2023-05-15T04:43:08.460Z,7.80
2023-05-15T04:45:36.728Z,8.35
2023-05-15T04:48:06.832Z,7.43
2023-05-15T04:50:35.027Z,7.55
2023-05-15T04:53:03.606Z,7.63
2023-05-15T04:55:33.060Z,7.25
2023-05-15T04:58:01.829Z,7.68
2023-05-15T05:00:31.081Z,7.80
2023-05-15T05:02:59.250Z,7.78
2023-05-15T05:05:28.905Z,6.90
2023-05-15T05:07:56.997Z,6.82
2023-05-15T05:10:25.178Z,7.38
2023-05-15T05:12:53.661Z,7.13
2023-05-15T05:15:21.894Z,6.15
2023-05-15T05:17:50.089Z,6.78
2023-05-15T05:20:18.462Z,7.20
2023-05-15T05:22:47.978Z,6.10
2023-05-15T05:25:16.277Z,6.65
2023-05-15T05:27:44.638Z,6.55
2023-05-15T05:30:13.654Z,7.03
2023-05-15T05:32:41.834Z,6.10
2023-05-15T05:35:10.579Z,5.53
2023-05-15T05:37:40.809Z,4.72
2023-05-15T05:40:12.225Z,4.75
2023-05-15T05:42:40.360Z,5.10
2023-05-15T05:45:09.376Z,4.63
2023-05-15T05:47:37.526Z,4.95
2023-05-15T05:50:06.492Z,5.38
2023-05-15T05:52:34.617Z,5.10
2023-05-15T05:55:03.192Z,5.10
2023-05-15T05:57:33.010Z,4.60
2023-05-15T06:00:01.162Z,4.60
2023-05-15T06:02:29.452Z,4.47
2023-05-15T06:07:25.693Z,4.72
2023-05-15T06:09:53.857Z,5.10
2023-05-15T06:12:23.136Z,5.90
2023-05-15T06:14:52.723Z,5.03
2023-05-15T06:17:21.309Z,5.00
2023-05-15T06:19:49.428Z,6.30
2023-05-15T06:22:17.559Z,5.95
2023-05-15T06:24:45.960Z,5.43
2023-05-15T06:27:14.064Z,5.43
2023-05-15T06:29:42.210Z,5.80
2023-05-15T06:32:11.706Z,6.57
2023-05-15T06:34:39.814Z,6.28
2023-05-15T06:37:07.899Z,6.55
2023-05-15T06:39:36.684Z,6.15
2023-05-15T06:42:05.030Z,6.00
2023-05-15T06:44:33.184Z,6.55
2023-05-15T06:47:01.699Z,6.85
2023-05-15T06:49:31.395Z,7.30
2023-05-15T06:51:59.503Z,7.40
2023-05-15T06:54:27.723Z,10.45
2023-05-15T06:56:55.860Z,10.30
2023-05-15T06:59:24.031Z,11.35
2023-05-15T07:01:52.176Z,12.80
2023-05-15T07:04:20.347Z,13.15
2023-05-15T07:06:50.343Z,11.43
2023-05-15T07:09:18.511Z,11.82
2023-05-15T07:11:46.638Z,12.07
2023-05-15T07:14:15.065Z,16.02
2023-05-15T07:16:43.187Z,17.25
2023-05-15T07:19:11.386Z,23.02
2023-05-15T07:21:40.490Z,18.98
2023-05-15T07:24:10.151Z,17.40
2023-05-15T07:26:46.936Z,22.58
2023-05-15T07:29:25.443Z,23.58
2023-05-15T07:31:53.669Z,25.30
2023-05-15T07:34:21.880Z,25.73
2023-05-15T07:36:50.022Z,32.20
2023-05-15T07:39:19.603Z,34.15
2023-05-15T07:41:48.098Z,40.20
2023-05-15T07:44:16.249Z,41.25
2023-05-15T07:46:45.689Z,42.22
2023-05-15T07:49:14.036Z,44.35
2023-05-15T07:51:42.720Z,41.70
2023-05-15T07:54:10.953Z,39.97
2023-05-15T07:56:40.450Z,39.30
2023-05-15T07:59:09.557Z,40.47
2023-05-15T08:01:37.766Z,42.35
2023-05-15T08:04:09.087Z,40.50
2023-05-15T08:06:38.589Z,39.33
2023-05-15T08:09:06.734Z,39.72
2023-05-15T08:11:34.894Z,40.10
2023-05-15T08:14:04.451Z,38.33
2023-05-15T08:16:32.661Z,41.42
2023-05-15T08:19:03.628Z,39.97
2023-05-15T08:21:32.389Z,39.80
2023-05-15T08:24:01.520Z,38.95
2023-05-15T08:26:29.659Z,37.45
2023-05-15T08:28:58.001Z,36.80
2023-05-15T08:31:27.566Z,40.08
2023-05-15T08:33:55.717Z,36.75
2023-05-15T08:36:24.031Z,36.03
2023-05-15T08:38:52.341Z,39.17
2023-05-15T08:41:39.874Z,35.08
2023-05-15T08:44:10.600Z,34.78
2023-05-15T08:46:40.396Z,34.35
2023-05-15T08:49:14.135Z,34.38
2023-05-15T08:51:42.444Z,35.45
2023-05-15T08:54:10.823Z,37.92
2023-05-15T08:56:39.272Z,35.83
2023-05-15T08:59:07.457Z,34.97
2023-05-15T09:01:35.728Z,36.45
2023-05-15T09:04:05.875Z,35.47
2023-05-15T09:06:36.306Z,33.70
2023-05-15T09:09:15.207Z,37.30
2023-05-15T09:11:46.420Z,35.55
2023-05-15T09:14:14.560Z,33.70
2023-05-15T09:16:42.699Z,39.78
2023-05-15T09:19:12.225Z,36.58
2023-05-15T09:21:40.335Z,35.70
2023-05-15T09:24:20.219Z,37.38
2023-05-15T09:26:49.418Z,37.10
2023-05-15T09:29:19.016Z,35.25
2023-05-15T09:31:48.393Z,36.75
2023-05-15T09:34:18.320Z,36.28
2023-05-15T09:36:46.671Z,37.88
2023-05-15T09:39:14.820Z,36.60
2023-05-15T09:41:45.179Z,41.45
2023-05-15T09:44:21.833Z,40.20
2023-05-15T09:46:51.309Z,36.15
2023-05-15T09:49:21.005Z,35.75
2023-05-15T09:51:50.477Z,36.25
2023-05-15T09:54:19.819Z,36.40
2023-05-15T09:56:48.920Z,37.17
2023-05-15T09:59:19.257Z,39.28
2023-05-15T10:01:47.673Z,38.22
2023-05-15T10:04:16.086Z,37.75
2023-05-15T10:06:48.328Z,37.35
2023-05-15T10:09:17.106Z,35.80
2023-05-15T10:11:46.467Z,37.10
2023-05-15T10:14:15.249Z,40.08
2023-05-15T10:16:43.805Z,41.55
2023-05-15T10:19:14.143Z,40.72
2023-05-15T10:21:43.259Z,42.55
2023-05-15T10:24:13.268Z,41.42
2023-05-15T10:26:42.367Z,43.30
2023-05-15T10:29:12.019Z,41.17
2023-05-15T10:31:41.152Z,38.67
2023-05-15T10:34:10.207Z,40.17
2023-05-15T10:36:39.685Z,39.67
2023-05-15T10:39:09.134Z,39.78
2023-05-15T10:41:40.808Z,38.90
2023-05-15T10:44:08.965Z,38.20
2023-05-15T10:46:37.540Z,37.28
2023-05-15T10:49:06.505Z,38.30
2023-05-15T10:51:36.874Z,40.10
2023-05-15T10:54:05.908Z,41.55
2023-05-15T10:56:35.064Z,43.33
2023-05-15T10:59:09.220Z,38.35
2023-05-15T11:01:38.654Z,39.70
2023-05-15T11:04:11.697Z,39.58
2023-05-15T11:09:36.913Z,37.25
2023-05-15T11:12:06.419Z,40.40
2023-05-15T11:14:37.560Z,40.17
2023-05-15T11:17:07.637Z,39.60
2023-05-15T11:19:58.757Z,38.25
2023-05-15T11:22:36.011Z,35.10
2023-05-15T11:25:06.228Z,39.70
2023-05-15T11:27:41.659Z,35.03
2023-05-15T11:30:20.695Z,32.13
2023-05-15T11:32:56.014Z,31.77
2023-05-15T11:35:27.248Z,30.52
2023-05-15T11:37:57.291Z,31.23
2023-05-15T11:40:27.380Z,31.80
2023-05-15T11:43:03.615Z,31.17
2023-05-15T11:45:35.012Z,32.95
2023-05-15T11:48:04.400Z,24.73
2023-05-15T11:50:34.021Z,29.52
2023-05-15T11:53:06.942Z,28.48
2023-05-15T11:58:04.331Z,28.25
2023-05-15T12:00:34.017Z,26.02
2023-05-15T12:03:03.910Z,19.08
2023-05-15T12:05:32.220Z,20.52
2023-05-15T12:08:00.497Z,17.33
2023-05-15T12:10:28.673Z,17.25
2023-05-15T12:12:56.813Z,17.55
2023-05-15T12:15:25.027Z,21.25
2023-05-15T12:17:54.626Z,20.83
2023-05-15T12:20:22.973Z,18.83
2023-05-15T12:22:51.302Z,21.15
2023-05-15T12:25:19.398Z,19.67
2023-05-15T12:27:47.546Z,19.33
2023-05-15T12:30:16.197Z,16.30
2023-05-15T12:32:44.748Z,17.65
2023-05-15T12:35:14.456Z,13.10
2023-05-15T12:37:43.309Z,13.82
2023-05-15T12:40:12.395Z,12.90
2023-05-15T12:42:41.771Z,16.67
2023-05-15T12:45:17.317Z,10.70
2023-05-15T12:47:46.561Z,9.32
2023-05-15T12:50:17.248Z,12.88
2023-05-15T12:52:56.491Z,11.50
2023-05-15T12:55:26.101Z,11.27
2023-05-15T12:57:54.446Z,10.93
2023-05-15T13:00:23.423Z,9.73
2023-05-15T13:02:53.589Z,9.00
2023-05-15T13:05:24.418Z,10.02
2023-05-15T13:07:53.046Z,10.30
2023-05-15T13:10:23.403Z,8.98
2023-05-15T13:12:52.982Z,8.80
2023-05-15T13:15:27.339Z,8.38
2023-05-15T13:17:59.160Z,11.63
2023-05-15T13:20:29.341Z,15.48
2023-05-15T13:22:57.475Z,14.75
2023-05-15T13:25:25.721Z,18.10
2023-05-15T13:27:54.055Z,17.95
2023-05-15T13:30:22.145Z,17.45
2023-05-15T13:32:50.360Z,18.60
2023-05-15T13:35:18.553Z,17.48
2023-05-15T13:37:48.370Z,18.65
2023-05-15T13:40:16.480Z,17.92
2023-05-15T13:42:45.376Z,17.30
2023-05-15T13:45:15.166Z,18.42
2023-05-15T13:47:43.757Z,18.90
2023-05-15T13:50:13.339Z,20.92
2023-05-15T13:52:41.956Z,18.52
2023-05-15T13:55:12.497Z,13.73
2023-05-15T13:57:41.562Z,12.38
2023-05-15T14:00:12.685Z,10.32
2023-05-15T14:02:41.001Z,10.98
2023-05-15T14:05:10.034Z,12.45
2023-05-15T14:07:38.314Z,12.80
2023-05-15T14:10:07.714Z,13.38
2023-05-15T14:12:37.773Z,14.63
2023-05-15T14:15:06.802Z,14.43
2023-05-15T14:17:35.564Z,14.43
2023-05-15T14:20:05.128Z,14.98
2023-05-15T14:22:33.433Z,13.68
2023-05-15T14:25:01.560Z,14.98
2023-05-15T14:27:29.814Z,16.80
2023-05-15T14:29:59.358Z,16.23
2023-05-15T14:32:27.496Z,14.68
2023-05-15T14:34:59.777Z,15.95
2023-05-15T14:37:28.539Z,15.10
2023-05-15T14:39:56.659Z,16.20
2023-05-15T14:42:24.777Z,16.02
2023-05-15T14:44:52.892Z,13.63
2023-05-15T14:47:22.594Z,13.32
2023-05-15T14:49:50.745Z,12.65
2023-05-15T14:52:18.960Z,11.73
2023-05-15T14:54:56.937Z,10.88
2023-05-15T14:57:35.294Z,10.57
2023-05-15T15:00:04.472Z,10.25
2023-05-15T15:02:34.210Z,10.23
2023-05-15T15:05:02.463Z,8.30
2023-05-15T15:07:31.118Z,8.45
2023-05-15T15:09:59.372Z,8.27
2023-05-15T15:12:27.908Z,8.10
2023-05-15T15:14:56.001Z,8.65
2023-05-15T15:17:24.093Z,8.10
2023-05-15T15:19:53.889Z,6.60
2023-05-15T15:22:21.986Z,7.60
2023-05-15T15:24:50.119Z,7.90
2023-05-15T15:27:18.337Z,6.38
2023-05-15T15:29:47.109Z,6.95
2023-05-15T15:32:15.622Z,6.63
2023-05-15T15:34:43.796Z,8.40
2023-05-15T15:37:16.261Z,7.43
2023-05-15T15:39:44.398Z,7.45
2023-05-15T15:42:12.478Z,6.10
2023-05-15T15:44:40.686Z,6.13
2023-05-15T15:47:08.927Z,5.80
2023-05-15T15:49:37.071Z,5.13
2023-05-15T15:52:05.376Z,5.35
2023-05-15T15:54:34.884Z,5.82
2023-05-15T15:57:03.074Z,5.60
2023-05-15T15:59:31.331Z,5.38
2023-05-15T16:01:59.431Z,4.95
2023-05-15T16:04:27.542Z,5.60
2023-05-15T16:06:55.785Z,5.68
2023-05-15T16:09:24.149Z,6.00
2023-05-15T16:11:53.987Z,5.63
2023-05-15T16:14:22.223Z,4.90
2023-05-15T16:16:50.528Z,4.93
2023-05-15T16:19:18.667Z,5.90
2023-05-15T16:21:46.868Z,5.30
2023-05-15T16:24:14.976Z,5.10
2023-05-15T16:26:43.145Z,5.72
2023-05-15T16:29:15.448Z,5.43
2023-05-15T16:31:44.372Z,5.85
2023-05-15T16:34:12.589Z,5.07
2023-05-15T16:36:40.783Z,5.45
2023-05-15T16:39:09.059Z,5.35
2023-05-15T16:41:37.300Z,6.18
2023-05-15T16:44:09.470Z,6.53
2023-05-15T16:46:39.162Z,8.50
2023-05-15T16:49:07.317Z,6.90
2023-05-15T16:51:35.486Z,7.47
2023-05-15T16:54:03.631Z,8.90
2023-05-15T16:56:31.797Z,8.13
2023-05-15T16:58:59.902Z,8.52
2023-05-15T17:01:28.012Z,8.57
2023-05-15T17:03:57.675Z,9.25
2023-05-15T17:06:26.095Z,9.70
2023-05-15T17:08:54.198Z,7.82
2023-05-15T17:11:22.575Z,8.05
2023-05-15T17:13:50.704Z,8.35
2023-05-15T17:16:18.870Z,8.30
2023-05-15T17:18:47.054Z,8.70
2023-05-15T17:21:16.686Z,9.80
2023-05-15T17:23:44.842Z,9.50
2023-05-15T17:26:12.995Z,9.93
2023-05-15T17:28:41.287Z,9.40
2023-05-15T17:31:13.714Z,9.98
2023-05-15T17:33:41.891Z,10.02
2023-05-15T17:36:10.515Z,9.52
2023-05-15T17:38:40.038Z,10.20
2023-05-15T17:41:08.354Z,9.57
2023-05-15T17:43:36.463Z,8.70
2023-05-15T17:46:05.745Z,7.90
2023-05-15T17:48:34.539Z,8.88
2023-05-15T17:51:02.749Z,8.82
2023-05-15T17:53:30.834Z,8.77
2023-05-15T17:56:01.105Z,8.60
2023-05-15T17:58:29.221Z,8.52
2023-05-15T18:00:57.392Z,8.98
2023-05-15T18:03:25.649Z,8.60
2023-05-15T18:05:53.925Z,8.27
2023-05-15T18:08:22.080Z,8.07
2023-05-15T18:10:50.163Z,9.18
2023-05-15T18:13:19.915Z,7.97
2023-05-15T18:15:48.985Z,8.45
2023-05-15T18:18:17.165Z,9.25
2023-05-15T18:20:45.268Z,9.10
2023-05-15T18:23:13.613Z,8.93
2023-05-15T18:25:42.018Z,9.02
2023-05-15T18:28:10.173Z,11.77
2023-05-15T18:30:39.677Z,10.35
2023-05-15T18:33:07.810Z,9.52
2023-05-15T18:35:36.644Z,9.93
2023-05-15T18:38:05.012Z,10.75
2023-05-15T18:40:33.260Z,11.13
2023-05-15T18:43:01.356Z,10.38
2023-05-15T18:45:29.496Z,12.07
2023-05-15T18:47:59.026Z,11.57
2023-05-15T18:50:27.650Z,12.05
2023-05-15T18:52:55.927Z,11.48
2023-05-15T18:55:24.254Z,12.65
2023-05-15T18:57:52.487Z,13.50
2023-05-15T19:00:36.512Z,13.13
2023-05-15T19:03:07.279Z,13.40
2023-05-15T19:05:35.556Z,13.05
2023-05-15T19:08:04.365Z,12.40
2023-05-15T19:10:32.615Z,12.48
2023-05-15T19:13:01.179Z,13.60
2023-05-15T19:15:29.343Z,13.63
2023-05-15T19:17:57.467Z,14.57
2023-05-15T19:20:27.264Z,13.13
2023-05-15T19:22:55.604Z,13.63
2023-05-15T19:25:24.049Z,13.93
2023-05-15T19:27:52.157Z,12.85
2023-05-15T19:30:20.345Z,13.77
2023-05-15T19:32:48.533Z,13.00
2023-05-15T19:35:16.880Z,14.07
2023-05-15T19:37:46.377Z,13.85
2023-05-15T19:40:15.028Z,14.70
2023-05-15T19:42:43.142Z,14.63
2023-05-15T19:45:12.166Z,14.57
2023-05-15T19:47:40.358Z,16.10
2023-05-15T19:50:10.030Z,16.02
2023-05-15T19:52:39.036Z,15.25
2023-05-15T19:55:09.598Z,15.52
2023-05-15T19:57:40.128Z,15.68
2023-05-15T20:00:10.342Z,16.73
2023-05-15T20:02:38.591Z,17.08
2023-05-15T20:05:07.506Z,15.27
2023-05-15T20:07:35.615Z,16.80
2023-05-15T20:10:03.836Z,18.08
2023-05-15T20:12:33.334Z,18.73
2023-05-15T20:15:01.448Z,19.85
2023-05-15T20:17:29.677Z,18.65
2023-05-15T20:19:59.134Z,20.30
2023-05-15T20:22:27.268Z,20.30
2023-05-15T20:24:55.389Z,18.85
2023-05-15T20:27:23.740Z,21.02
2023-05-15T20:29:53.271Z,19.45
2023-05-15T20:32:21.358Z,20.42
2023-05-15T20:34:50.229Z,19.73
2023-05-15T20:37:18.365Z,20.30
2023-05-15T20:39:46.507Z,19.85
2023-05-15T20:42:14.912Z,20.25
2023-05-15T20:44:43.037Z,20.35
2023-05-15T20:47:12.553Z,20.80
2023-05-15T20:49:40.678Z,21.67
2023-05-15T20:52:08.885Z,21.55
2023-05-15T20:54:36.970Z,21.63
2023-05-15T20:57:05.343Z,22.02
2023-05-15T20:59:33.923Z,21.65
2023-05-15T21:02:02.057Z,21.25
2023-05-15T21:04:31.909Z,20.13
2023-05-15T21:07:00.051Z,21.95
2023-05-15T21:09:28.149Z,20.50
2023-05-15T21:11:56.258Z,20.17
2023-05-15T21:14:24.345Z,21.55
2023-05-15T21:16:52.519Z,22.30
2023-05-15T21:19:20.896Z,22.73
2023-05-15T21:21:50.874Z,21.88
2023-05-15T21:24:19.008Z,21.80
2023-05-15T21:26:47.215Z,22.65
2023-05-15T21:29:15.611Z,22.35
2023-05-15T21:31:43.929Z,21.58
2023-05-15T21:34:12.877Z,20.65
2023-05-15T21:36:41.067Z,21.63
2023-05-15T21:39:10.746Z,21.80
2023-05-15T21:41:38.864Z,21.85
2023-05-15T21:44:07.133Z,21.58
2023-05-15T21:46:35.368Z,21.25
2023-05-15T21:49:03.510Z,22.13
2023-05-15T21:51:31.663Z,21.80
2023-05-15T21:53:59.846Z,22.50
2023-05-15T21:56:29.332Z,23.48
2023-05-15T21:58:58.226Z,21.25
2023-05-15T22:01:26.355Z,21.63
2023-05-15T22:03:54.611Z,21.75
2023-05-15T22:06:23.069Z,21.50
2023-05-15T22:08:51.228Z,20.80
2023-05-15T22:11:19.732Z,22.52
2023-05-15T22:13:49.210Z,22.27
2023-05-15T22:16:17.350Z,22.83
2023-05-15T22:18:47.681Z,22.15
2023-05-15T22:21:16.104Z,22.63
2023-05-15T22:23:44.433Z,22.63
2023-05-15T22:26:13.037Z,23.35
2023-05-15T22:28:42.039Z,23.45
2023-05-15T22:31:12.418Z,23.85
2023-05-15T22:33:40.638Z,24.30
2023-05-15T22:36:09.877Z,23.90
2023-05-15T22:38:37.999Z,25.90
2023-05-15T22:41:06.853Z,25.45
2023-05-15T22:43:34.984Z,24.10
2023-05-15T22:46:03.150Z,25.50
2023-05-15T22:48:32.712Z,25.58
2023-05-15T22:51:00.856Z,26.02
2023-05-15T22:53:30.097Z,25.48
2023-05-15T22:55:58.189Z,25.38
2023-05-15T22:58:26.351Z,25.17
2023-05-15T23:00:54.585Z,25.23
2023-05-15T23:03:22.839Z,25.40
2023-05-15T23:05:53.352Z,25.13
2023-05-15T23:08:21.465Z,26.25
2023-05-15T23:10:49.588Z,27.60
2023-05-15T23:13:17.715Z,26.50
2023-05-15T23:15:46.541Z,26.55
2023-05-15T23:18:14.806Z,26.95
2023-05-15T23:20:42.929Z,25.02
2023-05-15T23:23:12.420Z,25.42
2023-05-15T23:25:40.645Z,24.58
2023-05-15T23:28:08.743Z,26.02
2023-05-15T23:30:36.843Z,25.27
2023-05-15T23:33:05.132Z,25.20
2023-05-15T23:35:33.293Z,24.77
2023-05-15T23:38:01.466Z,26.75
2023-05-15T23:40:31.575Z,25.10
2023-05-15T23:42:59.709Z,25.17
2023-05-15T23:45:27.925Z,20.23
2023-05-15T23:47:56.136Z,21.65
2023-05-15T23:50:24.798Z,18.92
2023-05-15T23:52:53.209Z,19.60
2023-05-15T23:55:21.316Z,17.30
2023-05-15T23:57:50.854Z,18.80
